Playa Del Rey, California
Current Conditions -  °F | °C
As of 5:53 AM on Thursday 18 Dec 2014 (Local Time) from KLAX Reporting Station
Broken Clouds Broken Clouds  
Wind Chill: 50°   Ceiling: 11000
Heat Index: 50°   Visibility: 10mi
Dew Point: 45°   Wind: 3mph
Humidity: 83%   Direction: 100°E
Pressure: 30.14"   Gusts: NA
Location:  33.95°N, 118.44°W
Report Text: KLAX 181353Z 10003KT 10SM FEW080 BKN110 BKN200 10/07 A3014 RMK AO2 SLP204 T01000072 $
Loading
Personal Weather Stations






























Interactive Weather Map New forecast layout! Learn more

10-Day Weather Forecast

Advertisements
Track Severe Weather on mobile